»·PEaware :: WAT3512 KELP-KTUS

WAT3512 :: KELP-KTUS

FLIGHT INFORMATION

Flight Status: Arrived
Operator:
Walker Air Transport
More flights by this operator :: More flights under this callsign
Pilot: Richard A. (43314)
Aircraft: EMBRAER PHENOM 300
(E55P)
More flights by this aircraft type
Origin: KELP El Paso Intl
United States
Destination: KTUS Tucson Intl
United States
More flights between these airports :: More routes between these airports
Route: ATKNN5 FLOGS SSO ZONNA1
File this flight plan on PilotEdge
Remarks: RMK / SIMBRIEF
Altitude:
(Current/Filed)
27,000ft
Speed:
(Current/Filed)
436kts
Departed: 14-Sep-23 08:08 AM
Arrived: 14-Sep-23 09:08 AM
Distance/Time
Traveled:
233nm/1:00
Distance/Time
To Go:
Arrived

Flight Plot

Page will automatically refresh every two minutes.

Flight plan parsing failed; only flown route is shown


Map Options




Map Legend


Flown Route
Filed Route
Departure Airport
Arrival Airport
Navaid (VOR, NDB)
Fix

Horizontal Profiles

Position Reports

Time Latitude Longitude Heading Altitude Ground
Speed
14-Sep-23 07:29 31.798109 -106.374351 260 3946ft 0kts
14-Sep-23 07:30 31.798109 -106.374351 260 3946ft 0kts
14-Sep-23 07:31 31.798109 -106.374351 260 3946ft 0kts
14-Sep-23 07:32 31.798109 -106.374351 260 3946ft 0kts
14-Sep-23 07:33 31.798109 -106.374351 260 3946ft 0kts
14-Sep-23 07:34 31.798109 -106.374351 260 3946ft 0kts
14-Sep-23 07:35 31.798109 -106.374351 260 3946ft 0kts
14-Sep-23 07:36 31.798109 -106.374351 260 3946ft 0kts
14-Sep-23 07:37 31.798109 -106.374351 260 3946ft 0kts
14-Sep-23 07:38 31.798109 -106.374351 260 3946ft 0kts
14-Sep-23 07:39 31.798109 -106.374351 260 3946ft 0kts
14-Sep-23 07:40 31.798109 -106.374351 260 3946ft 0kts
14-Sep-23 07:41 31.798109 -106.374351 260 3946ft 0kts
14-Sep-23 07:42 31.798109 -106.374351 260 3946ft 0kts
14-Sep-23 07:43 31.798109 -106.374351 260 3946ft 0kts
14-Sep-23 07:44 31.798109 -106.374351 260 3946ft 0kts
14-Sep-23 07:45 31.798109 -106.374351 260 3946ft 0kts
14-Sep-23 07:46 31.798109 -106.374351 260 3946ft 0kts
14-Sep-23 07:47 31.798109 -106.374351 260 3946ft 0kts
14-Sep-23 07:48 31.798109 -106.374351 260 3946ft 0kts
14-Sep-23 07:49 31.798109 -106.374351 260 3946ft 0kts
14-Sep-23 07:50 31.798109 -106.374351 260 3946ft 0kts
14-Sep-23 07:51 31.798862 -106.374716 324 3945ft 7kts
14-Sep-23 07:52 31.799449 -106.377524 359 3939ft 10kts
14-Sep-23 07:53 31.799915 -106.381303 269 3935ft 15kts
14-Sep-23 07:54 31.799898 -106.386568 269 3928ft 17kts
14-Sep-23 07:55 31.799997 -106.390171 296 3921ft 12kts
14-Sep-23 07:56 31.801970 -106.392914 313 3921ft 11kts
14-Sep-23 07:57 31.803199 -106.392253 45 3921ft 12kts
14-Sep-23 07:58 31.806394 -106.388751 42 3925ft 15kts
14-Sep-23 07:59 31.809083 -106.385589 49 3928ft 12kts
14-Sep-23 08:00 31.811482 -106.382228 50 3931ft 16kts
14-Sep-23 08:01 31.814562 -106.377926 50 3935ft 19kts
14-Sep-23 08:02 31.818042 -106.373090 51 3945ft 16kts
14-Sep-23 08:03 31.820409 -106.369775 50 3950ft 11kts
14-Sep-23 08:04 31.822066 -106.368798 320 3950ft 0kts
14-Sep-23 08:05 31.822066 -106.368798 320 3950ft 0kts
14-Sep-23 08:06 31.822468 -106.369275 292 3949ft 7kts
14-Sep-23 08:07 31.818821 -106.375775 229 3938ft 99kts
14-Sep-23 08:08 31.796749 -106.416090 237 6907ft 167kts
14-Sep-23 08:09 31.770069 -106.468233 243 10562ft 206kts
14-Sep-23 08:10 31.769239 -106.527769 315 14721ft 220kts
14-Sep-23 08:11 31.807296 -106.582581 299 18571ft 222kts
14-Sep-23 08:12 31.819647 -106.650165 278 22007ft 219kts
14-Sep-23 08:13 31.832687 -106.724518 280 24427ft 254kts
14-Sep-23 08:14 31.849940 -106.816849 279 25499ft 326kts
14-Sep-23 08:15 31.869382 -106.923500 278 28151ft 331kts
14-Sep-23 08:16 31.890317 -107.039617 279 28328ft 393kts
14-Sep-23 08:17 31.913533 -107.168547 278 28329ft 404kts
14-Sep-23 08:18 31.936613 -107.297853 279 28313ft 404kts
14-Sep-23 08:19 31.959639 -107.427831 279 28335ft 405kts
14-Sep-23 08:20 31.982323 -107.556472 279 28314ft 404kts
14-Sep-23 08:21 32.005021 -107.685908 278 28312ft 401kts
14-Sep-23 08:22 32.027511 -107.815211 278 28294ft 405kts
14-Sep-23 08:23 32.049746 -107.943691 278 28279ft 400kts
14-Sep-23 08:24 32.071946 -108.072877 278 28291ft 401kts
14-Sep-23 08:25 32.093959 -108.201652 278 28288ft 402kts
14-Sep-23 08:26 32.115865 -108.330602 278 28299ft 401kts
14-Sep-23 08:27 32.137536 -108.459205 278 28301ft 402kts
14-Sep-23 08:28 32.159171 -108.588506 278 28301ft 402kts
14-Sep-23 08:29 32.180724 -108.717744 277 28272ft 401kts
14-Sep-23 08:30 32.201938 -108.846109 277 28286ft 403kts
14-Sep-23 08:31 32.223268 -108.975950 277 28060ft 400kts
14-Sep-23 08:32 32.244159 -109.104036 278 27041ft 390kts
14-Sep-23 08:33 32.263412 -109.225209 277 25993ft 365kts
14-Sep-23 08:34 32.261415 -109.340863 262 24969ft 352kts
14-Sep-23 08:35 32.249712 -109.456544 263 23958ft 366kts
14-Sep-23 08:36 32.237467 -109.576534 263 22934ft 366kts
14-Sep-23 08:37 32.225339 -109.694306 262 22095ft 357kts
14-Sep-23 08:38 32.213389 -109.809374 262 22039ft 352kts
14-Sep-23 08:39 32.201550 -109.924249 262 21029ft 355kts
14-Sep-23 08:40 32.189630 -110.040035 262 19900ft 357kts
14-Sep-23 08:41 32.177817 -110.153961 262 17888ft 346kts
14-Sep-23 08:42 32.166245 -110.264757 262 15874ft 336kts
14-Sep-23 08:43 32.154797 -110.372532 262 13855ft 327kts
14-Sep-23 08:44 32.144572 -110.467163 262 11774ft 272kts
14-Sep-23 08:45 32.135207 -110.553215 261 11501ft 252kts
14-Sep-23 08:46 32.126538 -110.632420 261 11464ft 232kts
14-Sep-23 08:47 32.118900 -110.701759 260 11513ft 217kts
14-Sep-23 08:48 32.111019 -110.772976 260 11505ft 216kts
14-Sep-23 08:49 32.103248 -110.842909 260 11502ft 214kts
14-Sep-23 08:50 32.097008 -110.913034 282 10965ft 225kts
14-Sep-23 08:51 32.138757 -110.965941 311 10148ft 211kts
14-Sep-23 08:52 32.179349 -111.013617 311 9448ft 201kts
14-Sep-23 08:53 32.217689 -111.058732 311 8925ft 190kts
14-Sep-23 08:54 32.254880 -111.102559 311 8418ft 188kts
14-Sep-23 08:55 32.291766 -111.146084 311 7928ft 187kts
14-Sep-23 08:56 32.309408 -111.196148 267 7801ft 167kts
14-Sep-23 08:57 32.318314 -111.244948 336 7767ft 159kts
14-Sep-23 08:58 32.333429 -111.211521 110 7468ft 166kts
14-Sep-23 08:59 32.308108 -111.166253 134 6958ft 160kts
14-Sep-23 09:00 32.279365 -111.130935 137 6308ft 140kts
14-Sep-23 09:01 32.253932 -111.100729 137 6126ft 129kts
14-Sep-23 09:02 32.226698 -111.068717 137 5466ft 143kts
14-Sep-23 09:03 32.200337 -111.037795 140 4690ft 116kts
14-Sep-23 09:04 32.177660 -111.011272 136 4105ft 117kts
14-Sep-23 09:05 32.154450 -110.984483 135 3477ft 115kts
14-Sep-23 09:06 32.131965 -110.958069 136 2861ft 113kts
14-Sep-23 09:07 32.114537 -110.937566 133 2607ft 13kts
14-Sep-23 09:08 32.114873 -110.936397 45 2610ft 0kts
14-Sep-23 09:09 32.117293 -110.938241 314 2601ft 20kts
14-Sep-23 09:11 32.121254 -110.942893 315 2588ft 17kts
14-Sep-23 09:12 32.124174 -110.943831 321 2580ft 14kts
14-Sep-23 09:13 32.124664 -110.944267 323 2578ft 0kts
14-Sep-23 09:14 32.124664 -110.944267 323 2578ft 0kts

Navigation Log

Ident Type
Flight plan parsing failed, navigation log unavailable